sensor_id;sensor_type;location;lat;lon;timestamp;pressure;altitude;pressure_sealevel;temperature;humidity
5283;BME280;15376;48.540;9.268;2023-12-20T00:00:08;97558.41;;;4.94;100.00
5283;BME280;15376;48.540;9.268;2023-12-20T00:02:33;97560.19;;;5.03;100.00
5283;BME280;15376;48.540;9.268;2023-12-20T00:04:58;97557.84;;;5.00;100.00
5283;BME280;15376;48.540;9.268;2023-12-20T00:07:27;97570.91;;;5.20;100.00
5283;BME280;15376;48.540;9.268;2023-12-20T00:09:52;97538.69;;;5.08;100.00
5283;BME280;15376;48.540;9.268;2023-12-20T00:12:17;97543.38;;;5.14;100.00
5283;BME280;15376;48.540;9.268;2023-12-20T00:14:42;97549.16;;;5.18;100.00
5283;BME280;15376;48.540;9.268;2023-12-20T00:17:08;97553.06;;;5.14;100.00
5283;BME280;15376;48.540;9.268;2023-12-20T00:19:33;97548.38;;;5.08;100.00
5283;BME280;15376;48.540;9.268;2023-12-20T00:21:58;97531.13;;;4.95;100.00
5283;BME280;15376;48.540;9.268;2023-12-20T00:24:25;97503.63;;;4.80;100.00
5283;BME280;15376;48.540;9.268;2023-12-20T00:26:50;97526.84;;;4.94;100.00
5283;BME280;15376;48.540;9.268;2023-12-20T00:29:16;97531.72;;;4.89;100.00
5283;BME280;15376;48.540;9.268;2023-12-20T00:31:41;97508.25;;;4.78;100.00
5283;BME280;15376;48.540;9.268;2023-12-20T00:34:06;97497.19;;;4.75;100.00
5283;BME280;15376;48.540;9.268;2023-12-20T00:36:31;97508.31;;;4.86;100.00
5283;BME280;15376;48.540;9.268;2023-12-20T00:38:57;97503.00;;;4.78;100.00
5283;BME280;15376;48.540;9.268;2023-12-20T00:41:22;97504.03;;;4.85;100.00
5283;BME280;15376;48.540;9.268;2023-12-20T00:43:47;97508.31;;;4.86;100.00
5283;BME280;15376;48.540;9.268;2023-12-20T00:46:13;97492.47;;;4.78;100.00
5283;BME280;15376;48.540;9.268;2023-12-20T00:48:38;97514.66;;;4.93;100.00
5283;BME280;15376;48.540;9.268;2023-12-20T00:51:04;97499.06;;;4.82;100.00
5283;BME280;15376;48.540;9.268;2023-12-20T00:53:29;97482.78;;;4.79;100.00
5283;BME280;15376;48.540;9.268;2023-12-20T00:55:54;97473.22;;;4.78;100.00
5283;BME280;15376;48.540;9.268;2023-12-20T00:58:20;97499.09;;;5.00;100.00
5283;BME280;15376;48.540;9.268;2023-12-20T01:00:45;97486.63;;;5.02;100.00
5283;BME280;15376;48.540;9.268;2023-12-20T01:03:11;97491.38;;;4.98;100.00
5283;BME280;15376;48.540;9.268;2023-12-20T01:05:37;97478.22;;;4.98;100.00
5283;BME280;15376;48.540;9.268;2023-12-20T01:08:02;97503.94;;;5.22;100.00
5283;BME280;15376;48.540;9.268;2023-12-20T01:10:28;97511.41;;;5.27;100.00
5283;BME280;15376;48.540;9.268;2023-12-20T01:12:54;97493.13;;;5.25;100.00
5283;BME280;15376;48.540;9.268;2023-12-20T01:15:20;97516.00;;;5.43;100.00
5283;BME280;15376;48.540;9.268;2023-12-20T01:17:45;97516.84;;;5.43;100.00
5283;BME280;15376;48.540;9.268;2023-12-20T01:20:10;97499.00;;;5.37;100.00
5283;BME280;15376;48.540;9.268;2023-12-20T01:22:36;97500.13;;;5.52;100.00
5283;BME280;15376;48.540;9.268;2023-12-20T01:25:04;97512.06;;;5.64;100.00
5283;BME280;15376;48.540;9.268;2023-12-20T01:27:30;97516.50;;;5.64;100.00
5283;BME280;15376;48.540;9.268;2023-12-20T01:29:56;97526.59;;;5.68;100.00
5283;BME280;15376;48.540;9.268;2023-12-20T01:32:21;97535.47;;;5.67;100.00
5283;BME280;15376;48.540;9.268;2023-12-20T01:34:47;97512.78;;;5.49;100.00
5283;BME280;15376;48.540;9.268;2023-12-20T01:37:13;97540.03;;;5.57;100.00
5283;BME280;15376;48.540;9.268;2023-12-20T01:39:39;97530.97;;;5.42;100.00
5283;BME280;15376;48.540;9.268;2023-12-20T01:42:04;97540.44;;;5.35;100.00
5283;BME280;15376;48.540;9.268;2023-12-20T01:44:30;97532.75;;;5.24;100.00
5283;BME280;15376;48.540;9.268;2023-12-20T01:46:55;97555.47;;;5.25;100.00
5283;BME280;15376;48.540;9.268;2023-12-20T01:49:21;97563.00;;;5.20;100.00
5283;BME280;15376;48.540;9.268;2023-12-20T01:51:47;97563.59;;;5.14;100.00
5283;BME280;15376;48.540;9.268;2023-12-20T01:54:13;97552.66;;;5.09;100.00
5283;BME280;15376;48.540;9.268;2023-12-20T01:56:39;97565.84;;;5.09;100.00
5283;BME280;15376;48.540;9.268;2023-12-20T01:59:06;97558.22;;;5.06;100.00
5283;BME280;15376;48.540;9.268;2023-12-20T02:01:32;97553.41;;;5.01;100.00
5283;BME280;15376;48.540;9.268;2023-12-20T02:03:59;97540.72;;;4.87;100.00
5283;BME280;15376;48.540;9.268;2023-12-20T02:06:31;97532.44;;;4.82;100.00
5283;BME280;15376;48.540;9.268;2023-12-20T02:08:59;97547.34;;;4.91;100.00
5283;BME280;15376;48.540;9.268;2023-12-20T02:11:25;97543.78;;;4.82;100.00
5283;BME280;15376;48.540;9.268;2023-12-20T02:13:51;97542.66;;;4.85;100.00
5283;BME280;15376;48.540;9.268;2023-12-20T02:16:16;97527.25;;;4.72;100.00
5283;BME280;15376;48.540;9.268;2023-12-20T02:18:43;97500.97;;;4.62;100.00
5283;BME280;15376;48.540;9.268;2023-12-20T02:21:10;97523.34;;;4.76;100.00
5283;BME280;15376;48.540;9.268;2023-12-20T02:23:35;97499.59;;;4.58;100.00
5283;BME280;15376;48.540;9.268;2023-12-20T02:26:01;97532.56;;;4.80;100.00
5283;BME280;15376;48.540;9.268;2023-12-20T02:28:27;97505.13;;;4.65;100.00
5283;BME280;15376;48.540;9.268;2023-12-20T02:30:53;97525.50;;;4.81;100.00
5283;BME280;15376;48.540;9.268;2023-12-20T02:33:18;97507.03;;;4.73;100.00
5283;BME280;15376;48.540;9.268;2023-12-20T02:35:44;97504.09;;;4.76;100.00
5283;BME280;15376;48.540;9.268;2023-12-20T02:38:09;97520.09;;;4.82;100.00
5283;BME280;15376;48.540;9.268;2023-12-20T02:40:34;97524.69;;;4.80;100.00
5283;BME280;15376;48.540;9.268;2023-12-20T02:43:00;97526.94;;;4.75;100.00
5283;BME280;15376;48.540;9.268;2023-12-20T02:45:26;97529.44;;;4.77;100.00
5283;BME280;15376;48.540;9.268;2023-12-20T02:47:52;97514.47;;;4.77;100.00
5283;BME280;15376;48.540;9.268;2023-12-20T02:50:17;97510.22;;;4.66;100.00
5283;BME280;15376;48.540;9.268;2023-12-20T02:52:44;97524.75;;;4.71;100.00
5283;BME280;15376;48.540;9.268;2023-12-20T02:55:10;97526.94;;;4.75;100.00
5283;BME280;15376;48.540;9.268;2023-12-20T02:57:35;97517.41;;;4.74;100.00
5283;BME280;15376;48.540;9.268;2023-12-20T03:00:01;97531.78;;;4.80;100.00
5283;BME280;15376;48.540;9.268;2023-12-20T03:02:27;97522.81;;;4.73;100.00
5283;BME280;15376;48.540;9.268;2023-12-20T03:04:52;97523.50;;;4.75;100.00
5283;BME280;15376;48.540;9.268;2023-12-20T03:07:17;97532.28;;;4.83;100.00
5283;BME280;15376;48.540;9.268;2023-12-20T03:09:43;97524.19;;;4.77;100.00
5283;BME280;15376;48.540;9.268;2023-12-20T03:12:08;97538.91;;;4.87;100.00
5283;BME280;15376;48.540;9.268;2023-12-20T03:14:33;97533.25;;;4.82;100.00
5283;BME280;15376;48.540;9.268;2023-12-20T03:16:59;97539.50;;;4.81;100.00
5283;BME280;15376;48.540;9.268;2023-12-20T03:19:24;97529.94;;;4.80;100.00
5283;BME280;15376;48.540;9.268;2023-12-20T03:21:49;97538.22;;;4.85;100.00
5283;BME280;15376;48.540;9.268;2023-12-20T03:24:15;97536.72;;;4.83;100.00
5283;BME280;15376;48.540;9.268;2023-12-20T03:26:40;97532.78;;;4.69;100.00
5283;BME280;15376;48.540;9.268;2023-12-20T03:29:05;97534.84;;;4.75;100.00
5283;BME280;15376;48.540;9.268;2023-12-20T03:31:31;97557.63;;;4.84;100.00
5283;BME280;15376;48.540;9.268;2023-12-20T03:33:56;97534.44;;;4.70;100.00
5283;BME280;15376;48.540;9.268;2023-12-20T03:36:21;97559.44;;;4.84;100.00
5283;BME280;15376;48.540;9.268;2023-12-20T03:38:47;97536.38;;;4.68;100.00
5283;BME280;15376;48.540;9.268;2023-12-20T03:41:13;97540.41;;;4.72;100.00
5283;BME280;15376;48.540;9.268;2023-12-20T03:43:38;97537.75;;;4.72;100.00
5283;BME280;15376;48.540;9.268;2023-12-20T03:46:04;97548.69;;;4.77;100.00
5283;BME280;15376;48.540;9.268;2023-12-20T03:48:30;97567.31;;;4.84;100.00
5283;BME280;15376;48.540;9.268;2023-12-20T03:50:57;97569.81;;;4.85;100.00
5283;BME280;15376;48.540;9.268;2023-12-20T03:53:22;97568.44;;;4.81;100.00
5283;BME280;15376;48.540;9.268;2023-12-20T03:55:47;97560.19;;;4.76;100.00
5283;BME280;15376;48.540;9.268;2023-12-20T03:58:13;97561.00;;;4.77;100.00
5283;BME280;15376;48.540;9.268;2023-12-20T04:00:38;97584.47;;;4.88;100.00
5283;BME280;15376;48.540;9.268;2023-12-20T04:03:04;97566.50;;;4.83;100.00
5283;BME280;15376;48.540;9.268;2023-12-20T04:05:29;97557.41;;;4.78;100.00
5283;BME280;15376;48.540;9.268;2023-12-20T04:07:55;97558.53;;;4.75;100.00
5283;BME280;15376;48.540;9.268;2023-12-20T04:10:20;97590.28;;;4.91;100.00
5283;BME280;15376;48.540;9.268;2023-12-20T04:12:45;97571.53;;;4.77;100.00
5283;BME280;15376;48.540;9.268;2023-12-20T04:15:11;97577.69;;;4.85;100.00
5283;BME280;15376;48.540;9.268;2023-12-20T04:17:37;97562.13;;;4.74;100.00
5283;BME280;15376;48.540;9.268;2023-12-20T04:20:02;97588.22;;;4.85;100.00
5283;BME280;15376;48.540;9.268;2023-12-20T04:22:28;97585.59;;;4.85;100.00
5283;BME280;15376;48.540;9.268;2023-12-20T04:24:53;97591.41;;;4.89;100.00
5283;BME280;15376;48.540;9.268;2023-12-20T04:27:19;97597.78;;;4.86;100.00
5283;BME280;15376;48.540;9.268;2023-12-20T04:29:44;97594.59;;;4.83;100.00
5283;BME280;15376;48.540;9.268;2023-12-20T04:32:09;97584.81;;;4.75;100.00
5283;BME280;15376;48.540;9.268;2023-12-20T04:34:35;97603.19;;;4.85;100.00
5283;BME280;15376;48.540;9.268;2023-12-20T04:37:00;97574.47;;;4.64;100.00
5283;BME280;15376;48.540;9.268;2023-12-20T04:39:26;97604.44;;;4.81;100.00
5283;BME280;15376;48.540;9.268;2023-12-20T04:41:52;97576.66;;;4.68;100.00
5283;BME280;15376;48.540;9.268;2023-12-20T04:44:17;97603.31;;;4.83;100.00
5283;BME280;15376;48.540;9.268;2023-12-20T04:46:43;97585.09;;;4.72;100.00
5283;BME280;15376;48.540;9.268;2023-12-20T04:49:08;97583.03;;;4.76;100.00
5283;BME280;15376;48.540;9.268;2023-12-20T04:51:34;97499.31;;;4.24;100.00
5283;BME280;15376;48.540;9.268;2023-12-20T04:54:02;97595.63;;;4.72;100.00
5283;BME280;15376;48.540;9.268;2023-12-20T04:56:27;97602.84;;;4.70;100.00
5283;BME280;15376;48.540;9.268;2023-12-20T04:58:53;97608.50;;;4.75;100.00
5283;BME280;15376;48.540;9.268;2023-12-20T05:01:18;97584.59;;;4.59;100.00
5283;BME280;15376;48.540;9.268;2023-12-20T05:03:43;97601.03;;;4.71;100.00
5283;BME280;15376;48.540;9.268;2023-12-20T05:06:09;97602.84;;;4.60;100.00
5283;BME280;15376;48.540;9.268;2023-12-20T05:08:35;97627.19;;;4.72;100.00
5283;BME280;15376;48.540;9.268;2023-12-20T05:11:00;97622.22;;;4.69;100.00
5283;BME280;15376;48.540;9.268;2023-12-20T05:13:26;97607.69;;;4.65;100.00
5283;BME280;15376;48.540;9.268;2023-12-20T05:15:51;97616.97;;;4.69;100.00
5283;BME280;15376;48.540;9.268;2023-12-20T05:18:16;97614.50;;;4.58;100.00
5283;BME280;15376;48.540;9.268;2023-12-20T05:20:41;97590.97;;;4.47;100.00
5283;BME280;15376;48.540;9.268;2023-12-20T05:23:07;97634.97;;;4.64;100.00
5283;BME280;15376;48.540;9.268;2023-12-20T05:25:33;97639.38;;;4.73;100.00
5283;BME280;15376;48.540;9.268;2023-12-20T05:27:58;97621.13;;;4.62;100.00
5283;BME280;15376;48.540;9.268;2023-12-20T05:30:23;97636.91;;;4.62;100.00
5283;BME280;15376;48.540;9.268;2023-12-20T05:32:49;97631.66;;;4.62;100.00
5283;BME280;15376;48.540;9.268;2023-12-20T05:35:14;97641.06;;;4.64;100.00
5283;BME280;15376;48.540;9.268;2023-12-20T05:37:40;97646.44;;;4.63;100.00
5283;BME280;15376;48.540;9.268;2023-12-20T05:40:06;97662.91;;;4.65;100.00
5283;BME280;15376;48.540;9.268;2023-12-20T05:42:35;97656.97;;;4.63;100.00
5283;BME280;15376;48.540;9.268;2023-12-20T05:45:01;97653.53;;;4.53;100.00
5283;BME280;15376;48.540;9.268;2023-12-20T05:47:26;97671.78;;;4.64;100.00
5283;BME280;15376;48.540;9.268;2023-12-20T05:49:51;97663.22;;;4.62;100.00
5283;BME280;15376;48.540;9.268;2023-12-20T05:52:17;97655.47;;;4.51;100.00
5283;BME280;15376;48.540;9.268;2023-12-20T05:54:42;97671.09;;;4.62;100.00
5283;BME280;15376;48.540;9.268;2023-12-20T05:57:07;97636.66;;;4.46;100.00
5283;BME280;15376;48.540;9.268;2023-12-20T05:59:33;97674.56;;;4.62;100.00
5283;BME280;15376;48.540;9.268;2023-12-20T06:01:58;97674.28;;;4.65;100.00
5283;BME280;15376;48.540;9.268;2023-12-20T06:04:23;97688.94;;;4.68;100.00
5283;BME280;15376;48.540;9.268;2023-12-20T06:06:49;97687.16;;;4.68;100.00
5283;BME280;15376;48.540;9.268;2023-12-20T06:09:14;97677.59;;;4.58;100.00
5283;BME280;15376;48.540;9.268;2023-12-20T06:11:40;97674.41;;;4.54;100.00
5283;BME280;15376;48.540;9.268;2023-12-20T06:14:06;97670.13;;;4.53;100.00
5283;BME280;15376;48.540;9.268;2023-12-20T06:16:31;97701.69;;;4.63;100.00
5283;BME280;15376;48.540;9.268;2023-12-20T06:18:57;97689.22;;;4.55;100.00
5283;BME280;15376;48.540;9.268;2023-12-20T06:21:22;97710.00;;;4.68;100.00
5283;BME280;15376;48.540;9.268;2023-12-20T06:23:47;97662.94;;;4.46;100.00
5283;BME280;15376;48.540;9.268;2023-12-20T06:26:13;97702.25;;;4.66;100.00
5283;BME280;15376;48.540;9.268;2023-12-20T06:28:38;97705.28;;;4.62;100.00
5283;BME280;15376;48.540;9.268;2023-12-20T06:31:03;97711.94;;;4.66;100.00
5283;BME280;15376;48.540;9.268;2023-12-20T06:33:29;97700.31;;;4.59;100.00
5283;BME280;15376;48.540;9.268;2023-12-20T06:35:56;97719.69;;;4.67;100.00
5283;BME280;15376;48.540;9.268;2023-12-20T06:38:22;97717.19;;;4.66;100.00
5283;BME280;15376;48.540;9.268;2023-12-20T06:40:47;97702.38;;;4.55;100.00
5283;BME280;15376;48.540;9.268;2023-12-20T06:43:13;97719.13;;;4.64;100.00
5283;BME280;15376;48.540;9.268;2023-12-20T06:45:39;97700.59;;;4.56;100.00
5283;BME280;15376;48.540;9.268;2023-12-20T06:48:04;97687.03;;;4.51;100.00
5283;BME280;15376;48.540;9.268;2023-12-20T06:50:30;97702.78;;;4.60;100.00
5283;BME280;15376;48.540;9.268;2023-12-20T06:52:55;97696.44;;;4.53;100.00
5283;BME280;15376;48.540;9.268;2023-12-20T06:55:21;97722.03;;;4.61;100.00
5283;BME280;15376;48.540;9.268;2023-12-20T06:57:46;97716.09;;;4.59;100.00
5283;BME280;15376;48.540;9.268;2023-12-20T07:00:12;97729.66;;;4.64;100.00
5283;BME280;15376;48.540;9.268;2023-12-20T07:02:37;97728.00;;;4.63;100.00
5283;BME280;15376;48.540;9.268;2023-12-20T07:05:03;97724.09;;;4.57;100.00
5283;BME280;15376;48.540;9.268;2023-12-20T07:07:29;97729.66;;;4.64;100.00
5283;BME280;15376;48.540;9.268;2023-12-20T07:09:54;97709.84;;;4.50;100.00
5283;BME280;15376;48.540;9.268;2023-12-20T07:12:20;97732.41;;;4.62;100.00
5283;BME280;15376;48.540;9.268;2023-12-20T07:14:46;97713.59;;;4.48;100.00
5283;BME280;15376;48.540;9.268;2023-12-20T07:17:11;97747.38;;;4.62;100.00
5283;BME280;15376;48.540;9.268;2023-12-20T07:19:39;97742.09;;;4.62;100.00
5283;BME280;15376;48.540;9.268;2023-12-20T07:22:05;97731.31;;;4.55;100.00
5283;BME280;15376;48.540;9.268;2023-12-20T07:24:31;97749.59;;;4.66;100.00
5283;BME280;15376;48.540;9.268;2023-12-20T07:26:56;97734.78;;;4.56;100.00
5283;BME280;15376;48.540;9.268;2023-12-20T07:29:22;97748.47;;;4.69;100.00
5283;BME280;15376;48.540;9.268;2023-12-20T07:31:47;97732.84;;;4.58;100.00
5283;BME280;15376;48.540;9.268;2023-12-20T07:34:12;97738.38;;;4.55;100.00
5283;BME280;15376;48.540;9.268;2023-12-20T07:36:38;97756.78;;;4.64;100.00
5283;BME280;15376;48.540;9.268;2023-12-20T07:39:03;97761.22;;;4.64;100.00
5283;BME280;15376;48.540;9.268;2023-12-20T07:41:28;97781.44;;;4.73;100.00
5283;BME280;15376;48.540;9.268;2023-12-20T07:43:54;97773.94;;;4.68;100.00
5283;BME280;15376;48.540;9.268;2023-12-20T07:46:21;97744.03;;;4.60;100.00
5283;BME280;15376;48.540;9.268;2023-12-20T07:48:49;97762.03;;;4.74;100.00
5283;BME280;15376;48.540;9.268;2023-12-20T07:51:14;97753.47;;;4.72;100.00
5283;BME280;15376;48.540;9.268;2023-12-20T07:53:40;97781.13;;;4.86;100.00
5283;BME280;15376;48.540;9.268;2023-12-20T07:56:18;97775.44;;;4.90;100.00
5283;BME280;15376;48.540;9.268;2023-12-20T07:58:44;97777.25;;;4.90;100.00
5283;BME280;15376;48.540;9.268;2023-12-20T08:01:10;97789.16;;;4.94;100.00
5283;BME280;15376;48.540;9.268;2023-12-20T08:03:36;97761.47;;;4.80;100.00
5283;BME280;15376;48.540;9.268;2023-12-20T08:06:03;97785.53;;;4.95;100.00
5283;BME280;15376;48.540;9.268;2023-12-20T08:08:28;97776.97;;;4.83;100.00
5283;BME280;15376;48.540;9.268;2023-12-20T08:10:54;97784.72;;;4.85;100.00
5283;BME280;15376;48.540;9.268;2023-12-20T08:13:19;97788.59;;;5.00;100.00
5283;BME280;15376;48.540;9.268;2023-12-20T08:15:45;97768.09;;;4.94;100.00
5283;BME280;15376;48.540;9.268;2023-12-20T08:18:10;97765.88;;;4.89;100.00
5283;BME280;15376;48.540;9.268;2023-12-20T08:20:35;97766.16;;;4.86;100.00
5283;BME280;15376;48.540;9.268;2023-12-20T08:23:00;97782.78;;;4.96;100.00
5283;BME280;15376;48.540;9.268;2023-12-20T08:25:26;97790.53;;;5.08;100.00
5283;BME280;15376;48.540;9.268;2023-12-20T08:27:52;97780.69;;;5.10;100.00
5283;BME280;15376;48.540;9.268;2023-12-20T08:30:18;97768.38;;;5.00;100.00
5283;BME280;15376;48.540;9.268;2023-12-20T08:32:46;97772.13;;;4.98;100.00
5283;BME280;15376;48.540;9.268;2023-12-20T08:35:11;97780.56;;;5.01;100.00
5283;BME280;15376;48.540;9.268;2023-12-20T08:37:36;97803.00;;;5.15;100.00
5283;BME280;15376;48.540;9.268;2023-12-20T08:40:02;97783.88;;;5.03;100.00
5283;BME280;15376;48.540;9.268;2023-12-20T08:42:27;97783.03;;;5.13;100.00
5283;BME280;15376;48.540;9.268;2023-12-20T08:44:57;97771.97;;;5.09;100.00
5283;BME280;15376;48.540;9.268;2023-12-20T08:47:23;97786.38;;;5.15;100.00
5283;BME280;15376;48.540;9.268;2023-12-20T08:49:48;97785.53;;;5.14;100.00
5283;BME280;15376;48.540;9.268;2023-12-20T08:52:13;97793.00;;;5.19;100.00
5283;BME280;15376;48.540;9.268;2023-12-20T08:54:39;97804.88;;;5.32;100.00
5283;BME280;15376;48.540;9.268;2023-12-20T08:57:04;97790.47;;;5.27;100.00
5283;BME280;15376;48.540;9.268;2023-12-20T08:59:31;97801.41;;;5.32;100.00
5283;BME280;15376;48.540;9.268;2023-12-20T09:01:57;97803.63;;;5.36;100.00
5283;BME280;15376;48.540;9.268;2023-12-20T09:04:22;97804.84;;;5.42;100.00
5283;BME280;15376;48.540;9.268;2023-12-20T09:06:48;97818.16;;;5.50;100.00
5283;BME280;15376;48.540;9.268;2023-12-20T09:09:13;97821.06;;;5.47;100.00
5283;BME280;15376;48.540;9.268;2023-12-20T09:11:40;97823.97;;;5.44;100.00
5283;BME280;15376;48.540;9.268;2023-12-20T09:14:05;97807.38;;;5.34;100.00
5283;BME280;15376;48.540;9.268;2023-12-20T09:16:31;97813.44;;;5.44;100.00
5283;BME280;15376;48.540;9.268;2023-12-20T09:18:56;97796.03;;;5.24;100.00
5283;BME280;15376;48.540;9.268;2023-12-20T09:21:22;97828.44;;;5.34;100.00
5283;BME280;15376;48.540;9.268;2023-12-20T09:23:47;97806.31;;;5.17;100.00
5283;BME280;15376;48.540;9.268;2023-12-20T09:26:12;97830.53;;;5.21;100.00
5283;BME280;15376;48.540;9.268;2023-12-20T09:28:38;97823.78;;;5.09;100.00
5283;BME280;15376;48.540;9.268;2023-12-20T09:31:05;97835.97;;;5.19;100.00
5283;BME280;15376;48.540;9.268;2023-12-20T09:33:31;97852.59;;;5.00;100.00
5283;BME280;15376;48.540;9.268;2023-12-20T09:35:56;97830.97;;;4.87;100.00
5283;BME280;15376;48.540;9.268;2023-12-20T09:38:21;97852.84;;;4.97;100.00
5283;BME280;15376;48.540;9.268;2023-12-20T09:40:47;97816.59;;;4.72;100.00
5283;BME280;15376;48.540;9.268;2023-12-20T09:43:18;97832.78;;;4.77;100.00
5283;BME280;15376;48.540;9.268;2023-12-20T09:45:46;97829.75;;;4.72;100.00
5283;BME280;15376;48.540;9.268;2023-12-20T09:48:12;97834.72;;;4.85;100.00
5283;BME280;15376;48.540;9.268;2023-12-20T09:50:40;97765.50;;;4.26;100.00
5283;BME280;15376;48.540;9.268;2023-12-20T09:53:07;97839.00;;;4.66;100.00
5283;BME280;15376;48.540;9.268;2023-12-20T09:55:36;97861.44;;;4.71;100.00
5283;BME280;15376;48.540;9.268;2023-12-20T09:58:01;97848.16;;;4.62;100.00
5283;BME280;15376;48.540;9.268;2023-12-20T10:00:27;97836.06;;;4.50;100.00
5283;BME280;15376;48.540;9.268;2023-12-20T10:02:59;97846.88;;;4.47;100.00
5283;BME280;15376;48.540;9.268;2023-12-20T10:05:29;97847.97;;;4.45;100.00
5283;BME280;15376;48.540;9.268;2023-12-20T10:07:55;97848.09;;;4.43;100.00
5283;BME280;15376;48.540;9.268;2023-12-20T10:10:21;97846.88;;;4.38;100.00
5283;BME280;15376;48.540;9.268;2023-12-20T10:13:09;97852.81;;;4.40;100.00
5283;BME280;15376;48.540;9.268;2023-12-20T10:15:35;97805.44;;;4.20;100.00
5283;BME280;15376;48.540;9.268;2023-12-20T10:18:02;97846.16;;;4.45;100.00
5283;BME280;15376;48.540;9.268;2023-12-20T10:20:28;97842.88;;;4.53;100.00
5283;BME280;15376;48.540;9.268;2023-12-20T10:22:55;97839.81;;;4.57;100.00
5283;BME280;15376;48.540;9.268;2023-12-20T10:25:21;97840.78;;;4.47;100.00
5283;BME280;15376;48.540;9.268;2023-12-20T10:27:46;97830.94;;;4.49;100.00
5283;BME280;15376;48.540;9.268;2023-12-20T10:30:13;97820.28;;;4.41;100.00
5283;BME280;15376;48.540;9.268;2023-12-20T10:32:39;97824.69;;;4.40;100.00
5283;BME280;15376;48.540;9.268;2023-12-20T10:35:04;97809.94;;;4.39;100.00
5283;BME280;15376;48.540;9.268;2023-12-20T10:37:30;97807.97;;;4.41;100.00
5283;BME280;15376;48.540;9.268;2023-12-20T10:39:56;97783.88;;;4.26;100.00
5283;BME280;15376;48.540;9.268;2023-12-20T10:42:26;97812.69;;;4.47;100.00
5283;BME280;15376;48.540;9.268;2023-12-20T10:44:51;97801.34;;;4.56;100.00
5283;BME280;15376;48.540;9.268;2023-12-20T10:47:19;97794.16;;;4.68;100.00
5283;BME280;15376;48.540;9.268;2023-12-20T10:49:45;97778.66;;;4.65;100.00
5283;BME280;15376;48.540;9.268;2023-12-20T10:52:12;97801.47;;;4.84;100.00
5283;BME280;15376;48.540;9.268;2023-12-20T10:54:41;97786.09;;;4.98;100.00
5283;BME280;15376;48.540;9.268;2023-12-20T10:57:07;97803.22;;;5.22;100.00
5283;BME280;15376;48.540;9.268;2023-12-20T10:59:37;97780.34;;;5.32;100.00
5283;BME280;15376;48.540;9.268;2023-12-20T11:02:03;97782.13;;;5.41;100.00
5283;BME280;15376;48.540;9.268;2023-12-20T11:04:52;97788.00;;;5.62;100.00
5283;BME280;15376;48.540;9.268;2023-12-20T11:07:35;97780.22;;;5.70;100.00
5283;BME280;15376;48.540;9.268;2023-12-20T11:10:18;97786.41;;;5.89;100.00
5283;BME280;15376;48.540;9.268;2023-12-20T11:12:54;97796.09;;;5.98;100.00
5283;BME280;15376;48.540;9.268;2023-12-20T11:15:22;97791.78;;;5.87;100.00
5283;BME280;15376;48.540;9.268;2023-12-20T11:17:57;97786.41;;;5.89;100.00
5283;BME280;15376;48.540;9.268;2023-12-20T11:20:24;97786.81;;;5.84;100.00
5283;BME280;15376;48.540;9.268;2023-12-20T11:23:00;97778.38;;;5.81;100.00
5283;BME280;15376;48.540;9.268;2023-12-20T11:25:26;97781.16;;;5.89;100.00
5283;BME280;15376;48.540;9.268;2023-12-20T11:28:10;97782.75;;;5.99;100.00
5283;BME280;15376;48.540;9.268;2023-12-20T11:30:43;97781.69;;;5.83;100.00
5283;BME280;15376;48.540;9.268;2023-12-20T11:33:10;97782.84;;;5.70;100.00
5283;BME280;15376;48.540;9.268;2023-12-20T11:35:36;97785.06;;;5.65;100.00
5283;BME280;15376;48.540;9.268;2023-12-20T11:38:02;97691.06;;;5.01;100.00
5283;BME280;15376;48.540;9.268;2023-12-20T11:40:27;97780.72;;;5.47;100.00
5283;BME280;15376;48.540;9.268;2023-12-20T11:42:53;97773.25;;;5.42;100.00
5283;BME280;15376;48.540;9.268;2023-12-20T11:45:24;97769.22;;;5.48;100.00
5283;BME280;15376;48.540;9.268;2023-12-20T11:47:51;97766.31;;;5.41;100.00
5283;BME280;15376;48.540;9.268;2023-12-20T11:50:18;97791.28;;;5.37;100.00
5283;BME280;15376;48.540;9.268;2023-12-20T11:52:44;97762.31;;;5.37;100.00
5283;BME280;15376;48.540;9.268;2023-12-20T11:55:09;97783.25;;;5.39;100.00
5283;BME280;15376;48.540;9.268;2023-12-20T11:57:35;97791.16;;;5.29;100.00
5283;BME280;15376;48.540;9.268;2023-12-20T12:00:02;97792.69;;;5.22;100.00
5283;BME280;15376;48.540;9.268;2023-12-20T12:02:28;97787.75;;;5.19;100.00
5283;BME280;15376;48.540;9.268;2023-12-20T12:04:53;97785.09;;;5.19;100.00
5283;BME280;15376;48.540;9.268;2023-12-20T12:07:19;97797.69;;;5.25;100.00
5283;BME280;15376;48.540;9.268;2023-12-20T12:09:45;97794.22;;;5.24;100.00
5283;BME280;15376;48.540;9.268;2023-12-20T12:12:12;97785.75;;;5.30;100.00
5283;BME280;15376;48.540;9.268;2023-12-20T12:14:38;97789.06;;;5.32;100.00
5283;BME280;15376;48.540;9.268;2023-12-20T12:17:04;97763.34;;;5.17;100.00
5283;BME280;15376;48.540;9.268;2023-12-20T12:19:30;97757.69;;;5.12;100.00
5283;BME280;15376;48.540;9.268;2023-12-20T12:22:14;97778.69;;;5.31;100.00
5283;BME280;15376;48.540;9.268;2023-12-20T12:24:43;97777.59;;;5.24;99.29
5283;BME280;15376;48.540;9.268;2023-12-20T12:27:09;97783.81;;;5.32;98.47
5283;BME280;15376;48.540;9.268;2023-12-20T12:29:35;97769.69;;;5.24;100.00
5283;BME280;15376;48.540;9.268;2023-12-20T12:32:10;97769.41;;;5.27;100.00
5283;BME280;15376;48.540;9.268;2023-12-20T12:34:36;97746.44;;;5.19;98.85
5283;BME280;15376;48.540;9.268;2023-12-20T12:37:03;97768.56;;;5.26;100.00
5283;BME280;15376;48.540;9.268;2023-12-20T12:39:29;97753.66;;;5.17;99.49
5283;BME280;15376;48.540;9.268;2023-12-20T12:41:55;97782.44;;;5.28;100.00
5283;BME280;15376;48.540;9.268;2023-12-20T12:44:21;97748.69;;;5.14;100.00
5283;BME280;15376;48.540;9.268;2023-12-20T12:46:49;97770.53;;;5.24;100.00
5283;BME280;15376;48.540;9.268;2023-12-20T12:49:21;97777.03;;;5.20;100.00
5283;BME280;15376;48.540;9.268;2023-12-20T12:51:46;97780.38;;;5.22;100.00
5283;BME280;15376;48.540;9.268;2023-12-20T12:54:12;97750.22;;;5.07;100.00
5283;BME280;15376;48.540;9.268;2023-12-20T12:56:39;97787.97;;;5.35;100.00
5283;BME280;15376;48.540;9.268;2023-12-20T12:59:04;97787.97;;;5.35;100.00
5283;BME280;15376;48.540;9.268;2023-12-20T13:01:31;97778.06;;;5.10;100.00
5283;BME280;15376;48.540;9.268;2023-12-20T13:03:56;97776.41;;;4.89;100.00